createdAt,value
2019-04-14T00:01:43.392Z,20.77
2019-04-14T00:04:16.158Z,20.63
2019-04-14T00:06:46.318Z,20.40
2019-04-14T00:09:18.320Z,20.93
2019-04-14T00:11:48.128Z,20.90
2019-04-14T00:14:18.554Z,21.37
2019-04-14T00:16:48.984Z,21.57
2019-04-14T00:19:19.514Z,22.30
2019-04-14T00:21:50.045Z,20.93
2019-04-14T00:24:20.632Z,21.70
2019-04-14T00:26:51.020Z,20.90
2019-04-14T00:29:21.646Z,20.27
2019-04-14T00:31:53.723Z,20.80
2019-04-14T00:34:40.363Z,21.30
2019-04-14T00:37:31.565Z,19.77
2019-04-14T00:40:28.475Z,20.73
2019-04-14T00:43:15.798Z,19.40
2019-04-14T00:45:53.147Z,20.87
2019-04-14T00:48:23.091Z,21.23
2019-04-14T00:50:53.948Z,22.90
2019-04-14T00:53:23.403Z,20.47
2019-04-14T00:55:53.300Z,21.23
2019-04-14T00:58:23.609Z,20.77
2019-04-14T01:00:53.801Z,20.73
2019-04-14T01:03:24.281Z,20.73
2019-04-14T01:05:54.773Z,18.17
2019-04-14T01:08:24.932Z,19.47
2019-04-14T01:10:54.300Z,20.23
2019-04-14T01:13:24.623Z,18.87
2019-04-14T01:16:01.766Z,19.47
2019-04-14T01:18:25.533Z,21.23
2019-04-14T01:20:55.685Z,19.67
2019-04-14T01:23:26.111Z,19.30
2019-04-14T01:25:56.450Z,20.33
2019-04-14T01:28:26.587Z,20.27
2019-04-14T01:30:56.595Z,19.87
2019-04-14T01:33:27.180Z,20.63
2019-04-14T01:35:57.422Z,21.23
2019-04-14T01:38:27.610Z,21.13
2019-04-14T01:40:57.736Z,20.40
2019-04-14T01:43:27.807Z,22.07
2019-04-14T01:46:05.174Z,21.20
2019-04-14T01:48:28.205Z,19.53
2019-04-14T01:51:15.619Z,20.93
2019-04-14T01:54:03.991Z,20.73
2019-04-14T01:57:11.031Z,22.37
2019-04-14T01:59:41.274Z,21.27
2019-04-14T02:02:12.686Z,20.30
2019-04-14T02:04:42.159Z,21.50
2019-04-14T02:07:12.337Z,22.27
2019-04-14T02:09:42.506Z,20.77
2019-04-14T02:12:12.782Z,21.07
2019-04-14T02:14:43.047Z,21.27
2019-04-14T02:17:13.249Z,20.70
2019-04-14T02:19:43.879Z,20.47
2019-04-14T02:22:13.820Z,22.63
2019-04-14T02:24:43.909Z,20.87
2019-04-14T02:27:14.255Z,21.40
2019-04-14T02:29:43.581Z,20.37
2019-04-14T02:32:43.435Z,20.20
2019-04-14T02:35:10.898Z,21.00
2019-04-14T02:50:59.928Z,21.30
2019-04-14T02:56:08.222Z,21.20
2019-04-14T02:58:42.075Z,21.80
2019-04-14T03:03:33.549Z,21.00
2019-04-14T03:06:05.348Z,20.33
2019-04-14T03:08:41.357Z,20.43
2019-04-14T03:11:09.355Z,21.00
2019-04-14T03:13:35.955Z,21.47
2019-04-14T03:18:57.918Z,20.97
2019-04-14T03:21:55.116Z,20.97
2019-04-14T03:24:29.264Z,19.80
2019-04-14T03:27:22.713Z,21.03
2019-04-14T03:30:10.579Z,21.57
2019-04-14T03:35:04.023Z,21.80
2019-04-14T03:40:12.271Z,19.83
2019-04-14T03:42:40.937Z,20.63
2019-04-14T03:45:04.415Z,20.63
2019-04-14T03:47:31.078Z,21.10
2019-04-14T03:50:08.407Z,20.37
2019-04-14T03:52:51.930Z,20.30
2019-04-14T03:55:01.082Z,22.37
2019-04-14T03:57:15.651Z,20.87
2019-04-14T03:59:45.656Z,21.47
2019-04-14T04:02:46.697Z,21.33
2019-04-14T04:05:17.346Z,21.10
2019-04-14T04:08:20.023Z,21.93
2019-04-14T04:10:51.014Z,20.87
2019-04-14T04:13:21.563Z,21.27
2019-04-14T04:15:52.010Z,21.07
2019-04-14T04:18:24.241Z,21.47
2019-04-14T04:21:00.959Z,20.87
2019-04-14T04:23:53.218Z,21.87
2019-04-14T04:26:31.997Z,21.40
2019-04-14T04:29:04.997Z,19.87
2019-04-14T04:31:46.019Z,22.07
2019-04-14T04:34:53.425Z,20.33
2019-04-14T04:37:45.461Z,22.50
2019-04-14T04:40:22.213Z,22.50
2019-04-14T04:42:52.661Z,21.67
2019-04-14T04:45:23.429Z,23.60
2019-04-14T04:47:53.493Z,20.23
2019-04-14T04:50:23.892Z,22.53
2019-04-14T04:52:54.005Z,21.27
2019-04-14T04:55:24.195Z,22.13
2019-04-14T04:57:54.527Z,23.43
2019-04-14T05:00:24.445Z,21.33
2019-04-14T05:02:54.946Z,22.17
2019-04-14T05:06:00.347Z,22.63
2019-04-14T05:08:30.453Z,22.07
2019-04-14T05:11:07.561Z,21.63
2019-04-14T05:13:38.902Z,22.80
2019-04-14T05:16:09.000Z,22.17
2019-04-14T05:18:39.649Z,22.93
2019-04-14T05:21:10.382Z,24.07
2019-04-14T05:23:40.910Z,29.67
2019-04-14T05:26:11.301Z,23.43
2019-04-14T05:28:41.670Z,23.63
2019-04-14T05:31:12.162Z,23.07
2019-04-14T05:33:42.561Z,22.00
2019-04-14T05:36:12.840Z,23.30
2019-04-14T05:38:42.850Z,24.07
2019-04-14T05:41:13.585Z,23.13
2019-04-14T05:43:48.773Z,23.30
2019-04-14T05:46:14.324Z,23.70
2019-04-14T05:48:44.647Z,22.20
2019-04-14T05:51:15.334Z,23.60
2019-04-14T05:53:45.833Z,22.17
2019-04-14T05:56:16.368Z,23.50
2019-04-14T05:58:47.077Z,23.43
2019-04-14T06:01:18.075Z,23.83
2019-04-14T06:03:47.660Z,23.23
2019-04-14T06:06:17.203Z,23.87
2019-04-14T06:08:46.691Z,23.53
2019-04-14T06:11:16.262Z,23.57
2019-04-14T06:13:45.764Z,22.80
2019-04-14T06:16:15.271Z,23.80
2019-04-14T06:18:44.739Z,23.37
2019-04-14T06:21:14.305Z,23.07
2019-04-14T06:23:43.799Z,22.57
2019-04-14T06:26:13.572Z,25.57
2019-04-14T06:28:43.142Z,23.40
2019-04-14T06:31:25.044Z,21.43
2019-04-14T06:34:04.419Z,22.87
2019-04-14T06:36:52.894Z,21.67
2019-04-14T06:39:25.326Z,21.23
2019-04-14T06:41:54.878Z,25.27
2019-04-14T06:44:24.360Z,22.93
2019-04-14T06:46:53.867Z,22.93
2019-04-14T06:49:23.357Z,24.37
2019-04-14T06:51:52.844Z,23.27
2019-04-14T06:54:22.419Z,22.60
2019-04-14T06:56:51.890Z,24.17
2019-04-14T06:59:21.378Z,22.07
2019-04-14T07:01:50.871Z,23.57
2019-04-14T07:04:20.470Z,22.47
2019-04-14T07:06:51.438Z,22.93
2019-04-14T07:09:21.028Z,23.50
2019-04-14T07:11:50.521Z,22.60
2019-04-14T07:14:20.036Z,24.50
2019-04-14T07:16:51.386Z,22.70
2019-04-14T07:19:20.686Z,23.37
2019-04-14T07:21:50.203Z,19.60
2019-04-14T07:24:19.638Z,21.93
2019-04-14T07:26:49.159Z,18.23
2019-04-14T07:29:18.646Z,22.93
2019-04-14T07:31:56.364Z,23.27
2019-04-14T07:34:46.951Z,21.40
2019-04-14T07:37:42.851Z,22.40
2019-04-14T07:40:31.436Z,23.27
2019-04-14T07:43:22.854Z,22.00
2019-04-14T07:45:57.426Z,24.13
2019-04-14T07:48:37.927Z,21.33
2019-04-14T07:51:38.091Z,22.77
2019-04-14T07:54:24.635Z,21.03
2019-04-14T07:57:18.890Z,24.87
2019-04-14T07:59:55.082Z,23.53
2019-04-14T08:02:36.447Z,23.87
2019-04-14T08:05:12.416Z,20.47
2019-04-14T08:07:42.232Z,21.57
2019-04-14T08:10:12.315Z,22.33
2019-04-14T08:12:41.821Z,22.10
2019-04-14T08:15:11.465Z,22.80
2019-04-14T08:17:43.510Z,24.07
2019-04-14T08:20:12.235Z,19.63
2019-04-14T08:22:41.722Z,23.70
2019-04-14T08:25:11.280Z,22.77
2019-04-14T08:27:40.854Z,27.43
2019-04-14T08:30:10.416Z,23.70
2019-04-14T08:32:40.010Z,23.23
2019-04-14T08:35:09.610Z,23.50
2019-04-14T08:37:39.080Z,24.20
2019-04-14T08:40:08.573Z,24.17
2019-04-14T08:42:55.858Z,24.07
2019-04-14T08:46:02.539Z,22.40
2019-04-14T08:48:53.872Z,23.50
2019-04-14T08:51:36.417Z,21.97
2019-04-14T08:54:09.819Z,23.13
2019-04-14T08:56:50.908Z,22.87
2019-04-14T09:00:11.259Z,21.70
2019-04-14T09:03:03.547Z,21.07
2019-04-14T09:05:43.908Z,21.73
2019-04-14T09:08:23.618Z,21.73
2019-04-14T09:10:56.750Z,21.73
2019-04-14T09:13:26.240Z,21.13
2019-04-14T09:15:56.063Z,21.40
2019-04-14T09:18:25.644Z,21.03
2019-04-14T09:20:55.217Z,16.90
2019-04-14T09:23:25.037Z,19.27
2019-04-14T09:25:54.536Z,18.47
2019-04-14T09:28:24.071Z,18.47
2019-04-14T09:30:53.678Z,20.60
2019-04-14T09:33:23.223Z,19.70
2019-04-14T09:35:52.703Z,17.23
2019-04-14T09:38:22.286Z,20.67
2019-04-14T09:40:51.781Z,20.63
2019-04-14T09:43:21.268Z,19.67
2019-04-14T09:45:50.773Z,19.97
2019-04-14T09:48:20.265Z,21.30
2019-04-14T09:50:49.835Z,22.13
2019-04-14T09:53:19.330Z,21.27
2019-04-14T09:55:48.963Z,20.40
2019-04-14T09:58:18.456Z,22.87
2019-04-14T10:00:49.617Z,22.23
2019-04-14T10:03:19.146Z,23.23
2019-04-14T10:05:48.589Z,21.40
2019-04-14T10:08:18.101Z,20.57
2019-04-14T10:10:47.565Z,25.87
2019-04-14T10:13:17.062Z,21.57
2019-04-14T10:15:46.568Z,21.67
2019-04-14T10:18:16.129Z,23.40
2019-04-14T10:20:45.681Z,24.47
2019-04-14T10:23:15.178Z,21.77
2019-04-14T10:25:44.771Z,21.00
2019-04-14T10:28:14.294Z,19.20
2019-04-14T10:30:43.756Z,22.13
2019-04-14T10:33:13.329Z,21.80
2019-04-14T10:35:42.821Z,22.67
2019-04-14T10:38:12.378Z,20.93
2019-04-14T10:40:41.960Z,21.70
2019-04-14T10:43:11.531Z,20.70
2019-04-14T10:46:15.565Z,19.63
2019-04-14T10:49:14.687Z,16.50
2019-04-14T10:51:45.018Z,20.67
2019-04-14T10:54:14.515Z,18.80
2019-04-14T10:56:44.069Z,21.83
2019-04-14T10:59:13.554Z,19.57
2019-04-14T11:01:43.082Z,20.77
2019-04-14T11:04:12.647Z,20.57
2019-04-14T11:06:57.315Z,20.43
2019-04-14T11:09:26.912Z,19.80
2019-04-14T11:11:56.373Z,16.03
2019-04-14T11:14:25.880Z,18.27
2019-04-14T11:16:55.365Z,18.27
2019-04-14T11:19:24.940Z,17.67
2019-04-14T11:21:54.415Z,17.23
2019-04-14T11:24:24.251Z,17.13
2019-04-14T11:26:53.732Z,18.33
2019-04-14T11:29:23.323Z,18.03
2019-04-14T11:32:12.651Z,17.87
2019-04-14T11:34:52.213Z,19.23
2019-04-14T11:37:46.932Z,18.33
2019-04-14T11:40:19.079Z,18.10
2019-04-14T11:42:52.442Z,17.37
2019-04-14T11:45:20.064Z,14.90
2019-04-14T11:47:49.706Z,15.73
2019-04-14T11:50:19.697Z,16.77
2019-04-14T11:52:49.220Z,18.03
2019-04-14T11:55:18.703Z,16.47
2019-04-14T11:57:48.315Z,17.50
2019-04-14T12:00:36.900Z,18.87
2019-04-14T12:03:19.008Z,15.57
2019-04-14T12:06:16.529Z,15.20
2019-04-14T12:08:50.818Z,15.77
2019-04-14T12:11:20.303Z,14.57
2019-04-14T12:13:49.881Z,14.97
2019-04-14T12:16:19.374Z,15.93
2019-04-14T12:18:48.847Z,16.00
2019-04-14T12:21:18.316Z,13.90
2019-04-14T12:23:47.850Z,15.10
2019-04-14T12:26:17.397Z,15.07
2019-04-14T12:28:47.142Z,15.77
2019-04-14T12:31:17.465Z,15.50
2019-04-14T12:33:46.954Z,16.10
2019-04-14T12:36:16.427Z,15.97
2019-04-14T12:38:45.902Z,15.93
2019-04-14T12:41:20.135Z,16.53
2019-04-14T12:43:59.779Z,18.37
2019-04-14T12:46:46.706Z,16.77
2019-04-14T12:49:35.181Z,17.10
2019-04-14T12:52:21.527Z,16.33
2019-04-14T12:57:33.267Z,16.10
2019-04-14T13:00:02.769Z,16.17
2019-04-14T13:02:37.833Z,14.90
2019-04-14T13:05:07.431Z,16.27
2019-04-14T13:07:37.038Z,15.23
2019-04-14T13:10:07.219Z,15.80
2019-04-14T13:12:36.563Z,15.43
2019-04-14T13:15:06.699Z,15.93
2019-04-14T13:17:36.054Z,14.90
2019-04-14T13:20:05.822Z,15.00
2019-04-14T13:22:35.202Z,16.23
2019-04-14T13:25:04.821Z,15.43
2019-04-14T13:27:34.247Z,15.20
2019-04-14T13:30:03.854Z,16.87
2019-04-14T13:32:36.069Z,16.60
2019-04-14T13:35:04.612Z,15.10
2019-04-14T13:37:33.961Z,15.90
2019-04-14T13:40:03.408Z,15.33
2019-04-14T13:42:32.750Z,15.97
2019-04-14T13:45:02.134Z,16.67
2019-04-14T13:47:31.473Z,16.37
2019-04-14T13:50:00.954Z,15.37
2019-04-14T13:52:31.106Z,16.07
2019-04-14T13:55:00.546Z,15.53
2019-04-14T13:57:29.985Z,15.50
2019-04-14T13:59:59.338Z,15.67
2019-04-14T14:02:28.702Z,15.83
2019-04-14T14:04:58.153Z,15.23
2019-04-14T14:07:27.522Z,14.97
2019-04-14T14:09:57.307Z,16.33
2019-04-14T14:12:40.874Z,15.67
2019-04-14T14:15:41.149Z,14.60
2019-04-14T14:18:29.506Z,14.30
2019-04-14T14:21:23.625Z,15.00
2019-04-14T14:23:59.700Z,14.77
2019-04-14T14:26:29.855Z,14.83
2019-04-14T14:28:59.257Z,13.17
2019-04-14T14:31:28.645Z,17.00
2019-04-14T14:33:58.150Z,18.70
2019-04-14T14:36:27.502Z,14.90
2019-04-14T14:38:56.970Z,15.23
2019-04-14T14:41:26.267Z,16.03
2019-04-14T14:43:55.639Z,15.90
2019-04-14T14:46:49.862Z,16.00
2019-04-14T14:49:33.713Z,14.80
2019-04-14T14:52:06.974Z,13.37
2019-04-14T14:54:36.299Z,14.30
2019-04-14T14:57:05.744Z,15.17
2019-04-14T14:59:35.097Z,15.20
2019-04-14T15:02:04.528Z,15.23
2019-04-14T15:04:33.894Z,15.07
2019-04-14T15:07:03.221Z,16.07
2019-04-14T15:09:32.638Z,15.73
2019-04-14T15:12:02.005Z,14.50
2019-04-14T15:14:31.427Z,15.60
2019-04-14T15:17:00.767Z,14.73
2019-04-14T15:19:30.135Z,15.03
2019-04-14T15:21:59.472Z,15.43
2019-04-14T15:24:28.828Z,15.60
2019-04-14T15:26:58.245Z,14.60
2019-04-14T15:29:27.620Z,17.90
2019-04-14T15:31:56.970Z,17.73
2019-04-14T15:34:26.319Z,14.90
2019-04-14T15:36:55.651Z,16.03
2019-04-14T15:39:24.996Z,14.50
2019-04-14T15:41:54.351Z,13.77
2019-04-14T15:44:23.686Z,16.43
2019-04-14T15:46:53.063Z,15.07
2019-04-14T15:49:22.475Z,13.47
2019-04-14T15:51:52.130Z,13.90
2019-04-14T15:54:21.472Z,15.87
2019-04-14T15:56:57.121Z,14.23
2019-04-14T15:59:51.569Z,14.30
2019-04-14T16:02:31.978Z,15.50
2019-04-14T16:05:05.594Z,14.70
2019-04-14T16:07:44.823Z,16.03
2019-04-14T16:10:39.171Z,16.23
2019-04-14T16:13:29.214Z,15.57
2019-04-14T16:16:08.313Z,16.60
2019-04-14T16:18:45.108Z,14.60
2019-04-14T16:21:14.491Z,15.20
2019-04-14T16:23:50.424Z,16.07
2019-04-14T16:26:28.664Z,16.20
2019-04-14T16:29:19.716Z,15.17
2019-04-14T16:32:19.972Z,15.50
2019-04-14T16:34:52.912Z,16.90
2019-04-14T16:37:22.442Z,15.50
2019-04-14T16:39:51.964Z,16.63
2019-04-14T16:42:21.313Z,17.90
2019-04-14T16:44:50.750Z,14.17
2019-04-14T16:47:20.152Z,14.33
2019-04-14T16:49:49.534Z,16.10
2019-04-14T16:52:46.802Z,15.10
2019-04-14T16:55:29.539Z,13.87
2019-04-14T16:58:08.697Z,14.53
2019-04-14T17:00:41.240Z,14.93
2019-04-14T17:03:10.596Z,15.30
2019-04-14T17:05:39.948Z,14.83
2019-04-14T17:08:09.281Z,14.03
2019-04-14T17:10:38.662Z,14.70
2019-04-14T17:13:07.997Z,15.20
2019-04-14T17:15:56.347Z,15.10
2019-04-14T17:18:47.505Z,14.67
2019-04-14T17:21:36.155Z,15.37
2019-04-14T17:24:24.591Z,14.97
2019-04-14T17:26:58.389Z,14.57
2019-04-14T17:29:55.814Z,14.03
2019-04-14T17:32:50.494Z,13.37
2019-04-14T17:35:29.750Z,14.67
2019-04-14T17:38:03.105Z,15.20
2019-04-14T17:40:44.819Z,14.50
2019-04-14T17:43:23.526Z,13.60
2019-04-14T17:46:10.311Z,14.03
2019-04-14T17:49:01.751Z,14.63
2019-04-14T17:51:56.074Z,14.23
2019-04-14T17:54:43.106Z,14.77
2019-04-14T17:57:30.145Z,14.83
2019-04-14T18:00:22.021Z,14.73
2019-04-14T18:02:59.169Z,14.90
2019-04-14T18:05:32.633Z,13.87
2019-04-14T18:08:25.444Z,13.73
2019-04-14T18:11:16.933Z,14.10
2019-04-14T18:14:08.392Z,13.93
2019-04-14T18:16:49.867Z,14.10
2019-04-14T18:19:35.092Z,13.10
2019-04-14T18:22:04.480Z,12.47
2019-04-14T18:24:42.424Z,12.77
2019-04-14T18:27:04.923Z,12.63
2019-04-14T18:29:45.987Z,13.60
2019-04-14T18:32:20.632Z,11.50
2019-04-14T18:34:56.605Z,12.93
2019-04-14T18:37:36.083Z,12.33
2019-04-14T18:40:21.826Z,12.93
2019-04-14T18:43:19.200Z,12.43
2019-04-14T18:45:55.199Z,11.60
2019-04-14T18:48:29.953Z,11.93
2019-04-14T18:51:12.814Z,11.27
2019-04-14T18:53:47.915Z,12.33
2019-04-14T18:56:25.635Z,12.20
2019-04-14T18:59:16.769Z,11.37
2019-04-14T19:01:46.498Z,11.43
2019-04-14T19:04:15.882Z,12.20
2019-04-14T19:06:45.235Z,11.73
2019-04-14T19:09:14.583Z,12.27
2019-04-14T19:12:02.952Z,13.53
2019-04-14T19:14:34.670Z,12.57
2019-04-14T19:17:19.097Z,12.50
2019-04-14T19:20:01.534Z,12.57
2019-04-14T19:22:22.751Z,12.33
2019-04-14T19:24:52.108Z,12.97
2019-04-14T19:27:21.446Z,12.20
2019-04-14T19:29:50.808Z,12.47
2019-04-14T19:32:20.234Z,12.47
2019-04-14T19:34:49.590Z,12.50
2019-04-14T19:37:18.983Z,12.40
2019-04-14T19:39:48.317Z,11.83
2019-04-14T19:42:17.707Z,13.50
2019-04-14T19:44:47.092Z,12.10
2019-04-14T19:47:16.477Z,12.53
2019-04-14T19:49:45.818Z,12.63
2019-04-14T19:52:15.206Z,11.83
2019-04-14T19:54:44.558Z,13.27
2019-04-14T19:57:13.924Z,12.10
2019-04-14T19:59:43.265Z,12.67
2019-04-14T20:02:12.710Z,12.10
2019-04-14T20:04:42.086Z,13.53
2019-04-14T20:07:11.447Z,12.27
2019-04-14T20:09:40.872Z,12.13
2019-04-14T20:12:10.294Z,11.83
2019-04-14T20:14:39.675Z,12.67
2019-04-14T20:17:31.044Z,12.43
2019-04-14T20:20:19.509Z,11.67
2019-04-14T20:23:07.967Z,11.93
2019-04-14T20:26:05.294Z,12.40
2019-04-14T20:28:40.615Z,12.47
2019-04-14T20:31:35.334Z,12.33
2019-04-14T20:34:04.780Z,13.80
2019-04-14T20:36:34.219Z,12.00
2019-04-14T20:39:05.899Z,13.27
2019-04-14T20:41:35.266Z,13.53
2019-04-14T20:44:04.696Z,13.57
2019-04-14T20:46:34.075Z,13.17
2019-04-14T20:49:03.452Z,14.00
2019-04-14T20:51:32.953Z,12.40
2019-04-14T20:54:02.694Z,13.80
2019-04-14T20:56:32.054Z,13.40
2019-04-14T20:59:01.413Z,13.40
2019-04-14T21:01:32.780Z,13.67
2019-04-14T21:04:23.097Z,13.67
2019-04-14T21:07:15.175Z,13.97
2019-04-14T21:09:53.538Z,14.10
2019-04-14T21:12:38.666Z,14.73
2019-04-14T21:15:34.187Z,13.80
2019-04-14T21:18:16.150Z,15.37
2019-04-14T21:21:16.535Z,14.13
2019-04-14T21:24:03.520Z,14.43
2019-04-14T21:27:07.083Z,13.63
2019-04-14T21:30:07.398Z,15.40
2019-04-14T21:32:48.377Z,15.00
2019-04-14T21:35:42.343Z,15.33
2019-04-14T21:38:45.896Z,16.20
2019-04-14T21:41:21.030Z,15.93
2019-04-14T21:43:50.405Z,16.13
2019-04-14T21:46:19.881Z,15.57
2019-04-14T21:48:49.272Z,17.37
2019-04-14T21:51:18.667Z,15.83
2019-04-14T21:53:48.417Z,17.63
2019-04-14T21:56:17.772Z,17.93
2019-04-14T21:59:07.823Z,19.77
2019-04-14T22:01:54.812Z,20.47
2019-04-14T22:04:42.503Z,20.73
2019-04-14T22:07:26.462Z,19.47
2019-04-14T22:09:59.571Z,20.03
2019-04-14T22:12:30.302Z,19.50
2019-04-14T22:14:59.713Z,19.07
2019-04-14T22:17:29.118Z,20.00
2019-04-14T22:19:58.508Z,19.93
2019-04-14T22:22:27.938Z,20.53
2019-04-14T22:24:57.289Z,20.17
2019-04-14T22:27:26.639Z,20.73
2019-04-14T22:29:56.012Z,19.77
2019-04-14T22:32:25.365Z,21.03
2019-04-14T22:34:54.869Z,20.40
2019-04-14T22:37:24.201Z,22.43
2019-04-14T22:39:53.554Z,21.23
2019-04-14T22:42:22.976Z,22.10
2019-04-14T22:44:52.345Z,20.60
2019-04-14T22:47:21.741Z,21.37
2019-04-14T22:49:51.100Z,22.90
2019-04-14T22:52:20.633Z,20.53
2019-04-14T22:54:50.078Z,21.40
2019-04-14T22:57:19.682Z,20.00
2019-04-14T22:59:49.059Z,20.37
2019-04-14T23:02:37.429Z,21.57
2019-04-14T23:05:26.010Z,20.87
2019-04-14T23:08:13.866Z,21.47
2019-04-14T23:11:17.286Z,22.77
2019-04-14T23:13:59.798Z,22.90
2019-04-14T23:16:37.039Z,21.97
2019-04-14T23:19:10.938Z,23.27
2019-04-14T23:21:48.449Z,21.43
2019-04-14T23:24:30.506Z,22.93
2019-04-14T23:26:59.984Z,21.67
2019-04-14T23:29:29.400Z,22.53
2019-04-14T23:31:58.750Z,21.27
2019-04-14T23:34:28.109Z,21.87
2019-04-14T23:36:57.456Z,22.33
2019-04-14T23:39:26.818Z,23.10
2019-04-14T23:41:56.201Z,22.00
2019-04-14T23:44:25.561Z,23.03
2019-04-14T23:46:54.902Z,24.07
2019-04-14T23:49:24.360Z,25.23
2019-04-14T23:51:53.975Z,25.37
2019-04-14T23:54:23.325Z,24.00
2019-04-14T23:57:04.927Z,24.93
2019-04-14T23:59:23.912Z,24.40
